Terminal Aerodrome Forecast
Issued by NWS

Home | Current Version | Previous Version | Text Only | Print | Product List | Glossary On
Versions: 1 2 3 4 5 6 7 8 9 10 11 12 13 14 15 16 17
000
FTUS42 KILM 290520
TAFCRE
TAF
KCRE 290520Z 2906/3006 23009KT P6SM SCT025 BKN150
     FM291000 27003KT 4SM BR SCT005 BKN250
     FM291300 33005KT P6SM SCT040
     FM291800 15010KT P6SM SKC
     FM300000 12004KT P6SM SKC=

USA.gov is the U.S. government's official web portal to all federal, state and local government web resources and services.